createdAt,value
2019-02-10T00:02:09.257Z,6.57
2019-02-10T00:04:35.699Z,7.73
2019-02-10T00:07:02.170Z,9.10
2019-02-10T00:09:28.649Z,9.47
2019-02-10T00:11:55.112Z,7.47
2019-02-10T00:14:21.587Z,7.77
2019-02-10T00:16:47.979Z,5.57
2019-02-10T00:19:14.373Z,11.50
2019-02-10T00:21:40.728Z,9.80
2019-02-10T00:24:07.619Z,12.47
2019-02-10T00:26:34.123Z,10.77
2019-02-10T00:29:00.596Z,15.70
2019-02-10T00:31:27.149Z,16.00
2019-02-10T00:33:53.538Z,12.37
2019-02-10T00:36:20.095Z,11.60
2019-02-10T00:38:46.675Z,9.03
2019-02-10T00:41:13.124Z,6.27
2019-02-10T00:43:39.598Z,5.80
2019-02-10T00:46:05.969Z,8.10
2019-02-10T00:48:32.469Z,12.87
2019-02-10T00:50:58.851Z,9.20
2019-02-10T00:53:25.395Z,8.97
2019-02-10T00:55:51.876Z,14.37
2019-02-10T00:58:18.336Z,8.40
2019-02-10T01:00:44.851Z,8.03
2019-02-10T01:03:11.410Z,6.57
2019-02-10T01:05:37.972Z,5.40
2019-02-10T01:08:04.447Z,6.87
2019-02-10T01:10:31.015Z,6.40
2019-02-10T01:12:57.572Z,11.27
2019-02-10T01:15:23.947Z,10.33
2019-02-10T01:17:50.403Z,6.27
2019-02-10T01:20:16.974Z,8.83
2019-02-10T01:22:43.419Z,8.27
2019-02-10T01:25:09.809Z,6.63
2019-02-10T01:27:36.395Z,10.53
2019-02-10T01:30:04.771Z,7.67
2019-02-10T01:32:31.220Z,7.80
2019-02-10T01:34:57.703Z,7.07
2019-02-10T01:37:24.150Z,9.27
2019-02-10T01:39:50.727Z,6.97
2019-02-10T01:42:17.185Z,7.43
2019-02-10T01:44:43.655Z,3.63
2019-02-10T01:47:10.111Z,4.37
2019-02-10T01:49:36.583Z,11.10
2019-02-10T01:52:03.031Z,13.13
2019-02-10T01:54:29.516Z,7.77
2019-02-10T01:56:55.867Z,10.00
2019-02-10T01:59:22.273Z,10.07
2019-02-10T02:01:48.823Z,5.77
2019-02-10T02:04:15.281Z,8.43
2019-02-10T02:06:41.643Z,7.73
2019-02-10T02:09:10.002Z,6.87
2019-02-10T02:11:36.601Z,8.57
2019-02-10T02:14:03.049Z,5.13
2019-02-10T02:16:29.510Z,9.77
2019-02-10T02:18:55.959Z,6.07
2019-02-10T02:21:22.431Z,8.63
2019-02-10T02:23:48.984Z,9.43
2019-02-10T02:26:15.375Z,3.43
2019-02-10T02:28:41.825Z,8.70
2019-02-10T02:31:08.322Z,4.27
2019-02-10T02:33:34.849Z,9.43
2019-02-10T02:36:01.325Z,7.93
2019-02-10T02:38:27.862Z,7.73
2019-02-10T02:40:54.348Z,7.00
2019-02-10T02:43:20.786Z,6.60
2019-02-10T02:45:47.259Z,7.87
2019-02-10T02:48:13.724Z,5.53
2019-02-10T02:50:40.198Z,6.00
2019-02-10T02:53:06.642Z,5.23
2019-02-10T02:55:32.999Z,5.10
2019-02-10T02:57:59.483Z,3.87
2019-02-10T03:00:26.031Z,7.80
2019-02-10T03:02:52.515Z,4.17
2019-02-10T03:05:18.971Z,6.43
2019-02-10T03:07:45.440Z,5.23
2019-02-10T03:10:11.895Z,2.70
2019-02-10T03:12:38.368Z,6.70
2019-02-10T03:15:06.332Z,6.87
2019-02-10T03:17:32.784Z,7.00
2019-02-10T03:19:59.231Z,4.70
2019-02-10T03:22:25.810Z,3.40
2019-02-10T03:24:52.367Z,7.93
2019-02-10T03:27:18.866Z,3.73
2019-02-10T03:29:45.439Z,6.83
2019-02-10T03:32:11.911Z,5.63
2019-02-10T03:34:38.362Z,5.27
2019-02-10T03:37:04.844Z,6.30
2019-02-10T03:39:31.401Z,4.03
2019-02-10T03:41:57.859Z,5.00
2019-02-10T03:44:24.417Z,3.03
2019-02-10T03:46:50.926Z,4.80
2019-02-10T03:49:17.387Z,3.60
2019-02-10T03:51:43.838Z,5.13
2019-02-10T03:54:10.302Z,3.97
2019-02-10T03:56:36.755Z,2.80
2019-02-10T03:59:03.328Z,4.57
2019-02-10T04:01:29.875Z,4.03
2019-02-10T04:03:56.347Z,5.93
2019-02-10T04:06:22.697Z,5.57
2019-02-10T04:08:49.071Z,5.17
2019-02-10T04:11:15.631Z,5.37
2019-02-10T04:13:42.091Z,4.83
2019-02-10T04:16:08.447Z,3.47
2019-02-10T04:18:34.869Z,5.57
2019-02-10T04:21:01.492Z,3.73
2019-02-10T04:23:27.955Z,5.60
2019-02-10T04:25:54.345Z,6.30
2019-02-10T04:28:20.780Z,6.33
2019-02-10T04:30:47.228Z,2.73
2019-02-10T04:33:13.693Z,4.33
2019-02-10T04:35:40.157Z,3.27
2019-02-10T04:38:06.551Z,3.90
2019-02-10T04:40:33.011Z,4.30
2019-02-10T04:42:59.458Z,4.10
2019-02-10T04:45:25.975Z,4.20
2019-02-10T04:47:52.381Z,4.87
2019-02-10T04:50:18.857Z,3.60
2019-02-10T04:52:45.316Z,3.77
2019-02-10T04:55:11.790Z,5.27
2019-02-10T04:57:38.244Z,3.47
2019-02-10T05:00:06.644Z,3.43
2019-02-10T05:02:32.983Z,5.93
2019-02-10T05:04:59.554Z,3.63
2019-02-10T05:07:25.998Z,4.47
2019-02-10T05:09:52.371Z,2.57
2019-02-10T05:12:18.924Z,3.97
2019-02-10T05:14:45.407Z,3.90
2019-02-10T05:17:11.954Z,3.33
2019-02-10T05:19:38.410Z,3.40
2019-02-10T05:22:04.997Z,5.10
2019-02-10T05:24:31.437Z,2.83
2019-02-10T05:26:57.931Z,3.30
2019-02-10T05:29:24.294Z,2.03
2019-02-10T05:31:50.736Z,2.63
2019-02-10T05:34:17.312Z,6.27
2019-02-10T05:36:43.858Z,4.47
2019-02-10T05:39:10.307Z,3.73
2019-02-10T05:41:36.783Z,1.97
2019-02-10T05:44:03.136Z,3.43
2019-02-10T05:46:29.729Z,2.73
2019-02-10T05:48:56.168Z,4.43
2019-02-10T05:51:22.773Z,4.40
2019-02-10T05:53:49.223Z,4.50
2019-02-10T05:56:15.699Z,2.43
2019-02-10T05:58:42.246Z,3.70
2019-02-10T06:01:10.631Z,3.47
2019-02-10T06:03:37.184Z,3.07
2019-02-10T06:06:03.555Z,2.67
2019-02-10T06:08:30.113Z,5.93
2019-02-10T06:10:56.575Z,5.10
2019-02-10T06:13:23.023Z,2.83
2019-02-10T06:15:49.388Z,5.07
2019-02-10T06:18:15.861Z,4.43
2019-02-10T06:20:42.326Z,1.93
2019-02-10T06:23:08.684Z,2.27
2019-02-10T06:25:35.097Z,2.57
2019-02-10T06:28:01.456Z,2.17
2019-02-10T06:30:27.905Z,3.00
2019-02-10T06:32:54.402Z,2.50
2019-02-10T06:35:20.956Z,3.40
2019-02-10T06:37:47.441Z,2.30
2019-02-10T06:40:13.917Z,4.30
2019-02-10T06:42:40.393Z,2.17
2019-02-10T06:45:07.944Z,3.40
2019-02-10T06:47:34.419Z,2.33
2019-02-10T06:50:00.876Z,2.80
2019-02-10T06:52:27.347Z,4.93
2019-02-10T06:54:53.902Z,4.07
2019-02-10T06:57:20.763Z,2.13
2019-02-10T06:59:49.117Z,5.80
2019-02-10T07:02:17.527Z,3.20
2019-02-10T07:04:43.975Z,2.03
2019-02-10T07:07:10.430Z,3.80
2019-02-10T07:09:36.906Z,3.10
2019-02-10T07:12:05.260Z,4.07
2019-02-10T07:14:31.730Z,4.20
2019-02-10T07:17:00.082Z,3.03
2019-02-10T07:19:28.474Z,2.87
2019-02-10T07:21:54.818Z,2.93
2019-02-10T07:24:22.316Z,3.70
2019-02-10T07:26:50.719Z,2.10
2019-02-10T07:29:28.001Z,3.93
2019-02-10T07:31:54.442Z,2.67
2019-02-10T07:34:22.816Z,2.73
2019-02-10T07:36:51.269Z,2.47
2019-02-10T07:39:19.635Z,2.87
2019-02-10T07:41:47.987Z,2.43
2019-02-10T07:44:16.367Z,3.30
2019-02-10T07:46:42.833Z,1.60
2019-02-10T07:49:11.199Z,3.53
2019-02-10T07:51:38.574Z,2.20
2019-02-10T07:54:06.942Z,2.23
2019-02-10T07:56:34.308Z,1.87
2019-02-10T07:59:00.673Z,4.43
2019-02-10T08:01:28.916Z,2.20
2019-02-10T08:03:57.315Z,1.90
2019-02-10T08:06:25.700Z,2.20
2019-02-10T08:09:00.320Z,1.83
2019-02-10T08:11:28.581Z,2.40
2019-02-10T08:13:56.943Z,3.50
2019-02-10T08:16:25.311Z,1.30
2019-02-10T08:18:53.688Z,2.17
2019-02-10T08:21:22.077Z,2.20
2019-02-10T08:23:50.555Z,1.63
2019-02-10T08:26:18.960Z,2.17
2019-02-10T08:28:45.326Z,2.40
2019-02-10T08:31:16.784Z,3.50
2019-02-10T08:33:45.046Z,2.47
2019-02-10T08:36:13.430Z,2.50
2019-02-10T08:38:41.815Z,2.00
2019-02-10T08:41:08.177Z,2.33
2019-02-10T08:43:34.539Z,3.10
2019-02-10T08:46:02.940Z,1.87
2019-02-10T08:48:31.293Z,2.70
2019-02-10T08:50:59.781Z,3.40
2019-02-10T08:53:26.223Z,2.20
2019-02-10T08:55:52.601Z,1.50
2019-02-10T08:58:19.166Z,2.93
2019-02-10T09:00:45.743Z,3.07
2019-02-10T09:03:19.430Z,1.83
2019-02-10T09:05:40.711Z,1.30
2019-02-10T09:08:07.177Z,2.23
2019-02-10T09:10:33.566Z,1.90
2019-02-10T09:13:00.033Z,2.53
2019-02-10T09:15:26.373Z,2.40
2019-02-10T09:17:52.959Z,1.87
2019-02-10T09:20:19.414Z,1.67
2019-02-10T09:22:45.790Z,1.87
2019-02-10T09:25:12.345Z,1.40
2019-02-10T09:27:38.867Z,2.47
2019-02-10T09:30:07.418Z,1.00
2019-02-10T09:32:34.011Z,1.70
2019-02-10T09:35:00.415Z,1.47
2019-02-10T09:37:27.012Z,1.47
2019-02-10T09:39:53.469Z,1.20
2019-02-10T09:42:19.954Z,2.60
2019-02-10T09:44:46.588Z,1.10
2019-02-10T09:47:13.114Z,1.20
2019-02-10T09:49:39.705Z,3.73
2019-02-10T09:52:06.117Z,1.97
2019-02-10T09:54:32.556Z,1.07
2019-02-10T09:56:59.053Z,2.07
2019-02-10T09:59:25.521Z,2.03
2019-02-10T10:01:51.988Z,1.77
2019-02-10T10:04:18.446Z,1.40
2019-02-10T10:06:44.894Z,1.90
2019-02-10T10:09:18.761Z,1.83
2019-02-10T10:11:39.694Z,2.20
2019-02-10T10:14:06.096Z,1.77
2019-02-10T10:16:32.544Z,2.03
2019-02-10T10:18:59.170Z,1.50
2019-02-10T10:21:25.619Z,2.03
2019-02-10T10:23:52.084Z,1.67
2019-02-10T10:26:18.565Z,2.07
2019-02-10T10:28:45.049Z,2.70
2019-02-10T10:31:11.613Z,1.30
2019-02-10T10:33:37.996Z,1.30
2019-02-10T10:36:04.451Z,1.53
2019-02-10T10:38:30.919Z,1.33
2019-02-10T10:40:57.404Z,1.40
2019-02-10T10:43:23.889Z,1.17
2019-02-10T10:45:50.335Z,1.97
2019-02-10T10:48:16.710Z,1.23
2019-02-10T10:50:43.184Z,1.20
2019-02-10T10:53:09.723Z,1.10
2019-02-10T10:55:36.106Z,1.70
2019-02-10T10:58:02.586Z,1.43
2019-02-10T11:00:29.069Z,1.17
2019-02-10T11:02:55.748Z,2.87
2019-02-10T11:05:22.209Z,1.67
2019-02-10T11:07:48.644Z,2.00
2019-02-10T11:10:15.248Z,2.20
2019-02-10T11:12:41.689Z,3.53
2019-02-10T11:15:09.572Z,1.13
2019-02-10T11:17:36.060Z,1.30
2019-02-10T11:20:03.643Z,2.00
2019-02-10T11:22:30.115Z,1.30
2019-02-10T11:24:56.507Z,1.40
2019-02-10T11:27:22.999Z,1.93
2019-02-10T11:29:49.486Z,2.13
2019-02-10T11:32:15.847Z,2.27
2019-02-10T11:34:46.274Z,1.73
2019-02-10T11:37:10.787Z,2.37
2019-02-10T11:39:43.659Z,2.40
2019-02-10T11:42:05.502Z,2.40
2019-02-10T11:44:32.166Z,1.70
2019-02-10T11:46:58.702Z,2.27
2019-02-10T11:49:25.181Z,2.63
2019-02-10T11:51:51.627Z,1.13
2019-02-10T11:54:18.039Z,3.07
2019-02-10T11:56:44.387Z,1.53
2019-02-10T11:59:10.872Z,2.50
2019-02-10T12:01:37.214Z,1.93
2019-02-10T12:04:03.666Z,1.93
2019-02-10T12:06:30.131Z,1.43
2019-02-10T12:08:56.691Z,1.63
2019-02-10T12:11:23.167Z,1.47
2019-02-10T12:13:49.723Z,3.03
2019-02-10T12:16:16.212Z,1.20
2019-02-10T12:18:42.768Z,1.37
2019-02-10T12:21:09.241Z,1.63
2019-02-10T12:23:35.703Z,1.10
2019-02-10T12:26:02.267Z,3.03
2019-02-10T12:28:28.647Z,2.30
2019-02-10T12:30:55.215Z,2.30
2019-02-10T12:33:21.667Z,2.10
2019-02-10T12:35:48.139Z,1.23
2019-02-10T12:38:14.500Z,1.93
2019-02-10T12:40:40.971Z,1.40
2019-02-10T12:43:07.440Z,1.30
2019-02-10T12:45:33.912Z,1.20
2019-02-10T12:48:00.368Z,1.83
2019-02-10T12:50:26.835Z,1.20
2019-02-10T12:52:53.393Z,1.53
2019-02-10T12:55:19.771Z,1.40
2019-02-10T12:57:46.235Z,2.37
2019-02-10T13:00:14.120Z,1.13
2019-02-10T13:02:40.571Z,1.63
2019-02-10T13:05:06.975Z,2.30
2019-02-10T13:07:33.429Z,1.47
2019-02-10T13:10:07.838Z,1.25
2019-02-10T13:12:28.349Z,2.03
2019-02-10T13:14:54.784Z,1.83
2019-02-10T13:17:21.170Z,1.85
2019-02-10T13:19:47.641Z,2.30
2019-02-10T13:22:14.224Z,1.27
2019-02-10T13:24:40.680Z,2.10
2019-02-10T13:27:07.054Z,1.73
2019-02-10T13:29:33.516Z,2.22
2019-02-10T13:31:59.882Z,1.40
2019-02-10T13:34:26.345Z,2.70
2019-02-10T13:36:52.927Z,1.87
2019-02-10T13:39:19.387Z,1.82
2019-02-10T13:41:45.758Z,2.22
2019-02-10T13:44:12.219Z,2.62
2019-02-10T13:46:38.690Z,2.50
2019-02-10T13:49:05.140Z,1.98
2019-02-10T13:51:31.606Z,1.10
2019-02-10T13:53:58.054Z,1.70
2019-02-10T13:56:24.511Z,1.60
2019-02-10T13:58:50.895Z,1.47
2019-02-10T14:01:17.357Z,1.72
2019-02-10T14:03:43.924Z,2.45
2019-02-10T14:06:10.270Z,2.47
2019-02-10T14:08:36.826Z,1.80
2019-02-10T14:11:03.397Z,3.27
2019-02-10T14:13:29.758Z,2.10
2019-02-10T14:15:56.294Z,2.07
2019-02-10T14:18:22.767Z,3.00
2019-02-10T14:20:49.222Z,1.67
2019-02-10T14:23:15.690Z,1.90
2019-02-10T14:25:42.244Z,1.33
2019-02-10T14:28:08.619Z,2.30
2019-02-10T14:30:35.072Z,2.57
2019-02-10T14:33:01.431Z,1.80
2019-02-10T14:35:27.875Z,3.77
2019-02-10T14:37:54.353Z,4.57
2019-02-10T14:40:20.739Z,3.07
2019-02-10T14:42:47.204Z,3.93
2019-02-10T14:45:14.257Z,9.80
2019-02-10T14:47:40.832Z,3.87
2019-02-10T14:50:08.691Z,2.30
2019-02-10T14:52:35.212Z,3.43
2019-02-10T14:55:01.760Z,3.40
2019-02-10T14:57:28.211Z,3.00
2019-02-10T14:59:54.622Z,2.63
2019-02-10T15:02:21.063Z,2.10
2019-02-10T15:04:47.432Z,2.53
2019-02-10T15:07:13.916Z,4.07
2019-02-10T15:09:40.511Z,4.83
2019-02-10T15:12:06.947Z,2.80
2019-02-10T15:14:33.536Z,2.60
2019-02-10T15:17:00.094Z,2.20
2019-02-10T15:19:26.459Z,2.63
2019-02-10T15:21:52.908Z,5.57
2019-02-10T15:24:19.439Z,1.90
2019-02-10T15:26:45.915Z,2.20
2019-02-10T15:29:12.488Z,3.20
2019-02-10T15:31:38.965Z,3.00
2019-02-10T15:34:05.436Z,3.40
2019-02-10T15:36:31.902Z,4.03
2019-02-10T15:38:58.567Z,2.97
2019-02-10T15:41:24.931Z,2.80
2019-02-10T15:43:51.379Z,1.97
2019-02-10T15:46:17.977Z,3.03
2019-02-10T15:48:44.403Z,4.93
2019-02-10T15:51:10.783Z,4.70
2019-02-10T15:53:37.341Z,5.23
2019-02-10T15:56:03.802Z,2.87
2019-02-10T15:58:30.164Z,2.17
2019-02-10T16:00:56.640Z,2.70
2019-02-10T16:03:23.095Z,3.53
2019-02-10T16:05:49.592Z,4.70
2019-02-10T16:08:15.977Z,4.07
2019-02-10T16:10:42.458Z,2.10
2019-02-10T16:13:09.074Z,2.30
2019-02-10T16:15:35.507Z,3.57
2019-02-10T16:18:01.944Z,4.03
2019-02-10T16:20:28.407Z,2.93
2019-02-10T16:22:54.862Z,2.73
2019-02-10T16:25:21.334Z,2.10
2019-02-10T16:27:47.796Z,2.47
2019-02-10T16:30:14.875Z,2.57
2019-02-10T16:32:49.327Z,2.27
2019-02-10T16:35:09.706Z,3.37
2019-02-10T16:37:36.168Z,3.30
2019-02-10T16:40:04.642Z,2.20
2019-02-10T16:42:31.192Z,1.97
2019-02-10T16:44:57.631Z,2.13
2019-02-10T16:47:24.020Z,2.33
2019-02-10T16:49:50.479Z,3.27
2019-02-10T16:52:16.843Z,2.03
2019-02-10T16:54:43.351Z,1.47
2019-02-10T16:57:09.879Z,0.63
2019-02-10T16:59:36.435Z,0.80
2019-02-10T17:02:03.031Z,2.63
2019-02-10T17:04:29.412Z,1.40
2019-02-10T17:06:55.775Z,1.40
2019-02-10T17:09:22.239Z,0.93
2019-02-10T17:11:50.005Z,1.70
2019-02-10T17:14:16.500Z,1.47
2019-02-10T17:16:43.087Z,0.93
2019-02-10T17:19:09.647Z,1.23
2019-02-10T17:21:36.228Z,1.60
2019-02-10T17:24:02.781Z,1.17
2019-02-10T17:26:29.448Z,2.27
2019-02-10T17:28:55.804Z,1.50
2019-02-10T17:31:22.163Z,0.90
2019-02-10T17:33:48.613Z,1.37
2019-02-10T17:36:15.020Z,1.60
2019-02-10T17:38:41.570Z,0.80
2019-02-10T17:41:09.931Z,1.70
2019-02-10T17:43:36.521Z,0.80
2019-02-10T17:46:02.867Z,1.37
2019-02-10T17:48:30.359Z,2.03
2019-02-10T17:50:56.732Z,1.50
2019-02-10T17:53:23.314Z,0.87
2019-02-10T17:55:49.680Z,1.23
2019-02-10T17:58:16.039Z,1.40
2019-02-10T18:00:44.387Z,2.23
2019-02-10T18:03:10.750Z,1.63
2019-02-10T18:05:37.096Z,1.30
2019-02-10T18:08:03.694Z,3.77
2019-02-10T18:10:30.138Z,1.23
2019-02-10T18:12:56.619Z,3.27
2019-02-10T18:15:24.871Z,0.80
2019-02-10T18:17:53.263Z,2.40
2019-02-10T18:20:21.507Z,1.50
2019-02-10T18:22:49.893Z,2.23
2019-02-10T18:25:18.243Z,1.10
2019-02-10T18:27:46.624Z,0.73
2019-02-10T18:30:14.916Z,0.90
2019-02-10T18:32:43.276Z,0.90
2019-02-10T18:35:11.590Z,0.70
2019-02-10T18:37:40.007Z,0.70
2019-02-10T18:40:09.408Z,1.33
2019-02-10T18:42:37.663Z,1.17
2019-02-10T18:45:06.743Z,0.80
2019-02-10T18:47:35.087Z,0.70
2019-02-10T18:50:12.364Z,2.10
2019-02-10T18:52:40.623Z,1.10
2019-02-10T18:55:09.011Z,1.10
2019-02-10T18:57:37.258Z,1.10
2019-02-10T19:00:07.439Z,0.50
2019-02-10T19:02:35.806Z,1.57
2019-02-10T19:05:04.174Z,0.70
2019-02-10T19:07:32.523Z,0.83
2019-02-10T19:10:00.930Z,0.83
2019-02-10T19:12:29.167Z,1.53
2019-02-10T19:14:57.444Z,0.60
2019-02-10T19:17:25.807Z,0.80
2019-02-10T19:19:54.177Z,0.70
2019-02-10T19:22:22.603Z,1.07
2019-02-10T19:24:50.986Z,0.50
2019-02-10T19:27:19.272Z,0.70
2019-02-10T19:29:47.712Z,1.13
2019-02-10T19:32:15.963Z,1.10
2019-02-10T19:34:45.999Z,2.23
2019-02-10T19:37:14.254Z,2.67
2019-02-10T19:39:42.611Z,1.70
2019-02-10T19:42:10.887Z,0.87
2019-02-10T19:44:39.232Z,0.70
2019-02-10T19:47:07.517Z,0.90
2019-02-10T19:49:35.862Z,0.73
2019-02-10T19:52:04.269Z,1.13
2019-02-10T19:54:32.668Z,0.90
2019-02-10T19:57:01.102Z,1.77
2019-02-10T19:59:28.568Z,1.87
2019-02-10T20:01:56.851Z,1.17
2019-02-10T20:04:25.215Z,1.87
2019-02-10T20:06:53.492Z,2.63
2019-02-10T20:09:21.843Z,0.80
2019-02-10T20:11:50.235Z,0.60
2019-02-10T20:14:16.699Z,0.93
2019-02-10T20:16:45.077Z,0.97
2019-02-10T20:19:13.440Z,0.37
2019-02-10T20:21:41.849Z,1.53
2019-02-10T20:24:13.105Z,0.70
2019-02-10T20:26:41.585Z,0.63
2019-02-10T20:29:08.059Z,2.03
2019-02-10T20:31:36.346Z,1.10
2019-02-10T20:34:04.694Z,1.53
2019-02-10T20:36:33.081Z,1.10
2019-02-10T20:39:01.438Z,2.93
2019-02-10T20:41:29.723Z,0.97
2019-02-10T20:43:57.977Z,1.10
2019-02-10T20:46:26.319Z,2.23
2019-02-10T20:48:54.711Z,0.50
2019-02-10T20:51:21.186Z,0.37
2019-02-10T20:53:49.458Z,1.33
2019-02-10T20:56:17.817Z,0.60
2019-02-10T20:58:48.992Z,2.37
2019-02-10T21:01:16.503Z,0.80
2019-02-10T21:03:44.902Z,2.60
2019-02-10T21:06:13.152Z,1.17
2019-02-10T21:08:41.548Z,1.40
2019-02-10T21:11:09.803Z,0.80
2019-02-10T21:13:38.256Z,2.33
2019-02-10T21:16:12.419Z,1.17
2019-02-10T21:18:40.719Z,2.27
2019-02-10T21:21:09.102Z,0.70
2019-02-10T21:23:37.486Z,0.90
2019-02-10T21:26:05.767Z,0.70
2019-02-10T21:28:34.214Z,2.97
2019-02-10T21:31:02.559Z,4.03
2019-02-10T21:33:30.931Z,0.50
2019-02-10T21:35:59.287Z,0.57
2019-02-10T21:38:27.701Z,1.67
2019-02-10T21:40:56.044Z,0.57
2019-02-10T21:43:24.442Z,1.90
2019-02-10T21:45:58.733Z,0.70
2019-02-10T21:48:27.128Z,1.13
2019-02-10T21:50:53.574Z,1.73
2019-02-10T21:53:20.123Z,1.67
2019-02-10T21:55:46.602Z,1.10
2019-02-10T21:58:13.039Z,0.87
2019-02-10T22:00:39.510Z,0.63
2019-02-10T22:03:05.891Z,0.53
2019-02-10T22:05:32.363Z,0.93
2019-02-10T22:07:58.821Z,0.70
2019-02-10T22:10:25.286Z,1.43
2019-02-10T22:12:51.843Z,0.87
2019-02-10T22:15:18.219Z,1.10
2019-02-10T22:17:44.575Z,1.53
2019-02-10T22:20:10.950Z,0.43
2019-02-10T22:22:37.393Z,1.27
2019-02-10T22:25:05.067Z,1.33
2019-02-10T22:27:31.511Z,2.60
2019-02-10T22:29:58.021Z,0.50
2019-02-10T22:32:24.398Z,0.63
2019-02-10T22:34:50.777Z,0.47
2019-02-10T22:37:17.336Z,0.47
2019-02-10T22:39:43.811Z,1.37
2019-02-10T22:42:10.255Z,0.50
2019-02-10T22:44:36.794Z,0.40
2019-02-10T22:47:03.319Z,0.53
2019-02-10T22:49:29.675Z,0.33
2019-02-10T22:51:56.274Z,0.50
2019-02-10T22:54:22.806Z,1.80
2019-02-10T22:56:49.473Z,0.93
2019-02-10T22:59:15.881Z,0.50
2019-02-10T23:01:42.371Z,1.60
2019-02-10T23:04:08.967Z,0.30
2019-02-10T23:06:35.435Z,1.27
2019-02-10T23:09:04.986Z,1.77
2019-02-10T23:11:31.562Z,0.90
2019-02-10T23:13:58.015Z,0.47
2019-02-10T23:16:24.389Z,0.50
2019-02-10T23:18:50.764Z,0.50
2019-02-10T23:21:17.247Z,2.00
2019-02-10T23:23:43.798Z,0.70
2019-02-10T23:26:10.263Z,0.43
2019-02-10T23:28:36.756Z,1.57
2019-02-10T23:31:03.252Z,0.60
2019-02-10T23:33:29.692Z,0.60
2019-02-10T23:35:56.242Z,0.50
2019-02-10T23:38:22.734Z,0.60
2019-02-10T23:40:49.082Z,0.60
2019-02-10T23:43:15.577Z,0.60
2019-02-10T23:45:42.011Z,0.43
2019-02-10T23:48:08.393Z,1.00
2019-02-10T23:50:34.845Z,0.60
2019-02-10T23:53:01.309Z,0.70
2019-02-10T23:55:27.758Z,0.67
2019-02-10T23:57:54.225Z,0.70
